createdAt,value
2017-12-02T00:01:30.934Z,13.65
2017-12-02T00:03:57.783Z,13.80
2017-12-02T00:06:24.493Z,16.27
2017-12-02T00:08:52.042Z,19.15
2017-12-02T00:11:18.707Z,20.20
2017-12-02T00:13:44.951Z,17.67
2017-12-02T00:16:11.200Z,17.20
2017-12-02T00:18:38.059Z,17.98
2017-12-02T00:21:05.602Z,18.35
2017-12-02T00:23:32.285Z,16.55
2017-12-02T00:25:59.361Z,15.88
2017-12-02T00:28:25.786Z,13.30
2017-12-02T00:30:53.070Z,16.77
2017-12-02T00:33:19.326Z,16.35
2017-12-02T00:35:46.827Z,14.15
2017-12-02T00:38:13.233Z,13.75
2017-12-02T00:40:40.255Z,15.40
2017-12-02T00:43:07.289Z,13.13
2017-12-02T00:45:33.512Z,12.55
2017-12-02T00:48:00.736Z,15.15
2017-12-02T00:50:27.487Z,14.65
2017-12-02T00:52:54.421Z,12.75
2017-12-02T00:55:20.816Z,13.50
2017-12-02T00:57:48.585Z,15.88
2017-12-02T01:00:15.347Z,16.62
2017-12-02T01:02:41.543Z,14.77
2017-12-02T01:05:07.934Z,14.77
2017-12-02T01:07:34.940Z,15.30
2017-12-02T01:10:01.675Z,18.40
2017-12-02T01:12:28.027Z,13.50
2017-12-02T01:14:55.660Z,15.68
2017-12-02T01:17:22.032Z,13.38
2017-12-02T01:19:48.227Z,11.50
2017-12-02T01:22:14.695Z,14.35
2017-12-02T01:24:42.861Z,13.27
2017-12-02T01:27:09.671Z,16.58
2017-12-02T01:29:35.893Z,17.15
2017-12-02T01:32:03.188Z,19.65
2017-12-02T01:34:30.206Z,18.77
2017-12-02T01:36:57.400Z,21.42
2017-12-02T01:39:23.800Z,20.23
2017-12-02T01:41:51.371Z,17.45
2017-12-02T01:44:17.596Z,19.50
2017-12-02T01:46:43.804Z,14.65
2017-12-02T01:49:10.046Z,17.23
2017-12-02T01:51:36.235Z,16.62
2017-12-02T01:54:02.491Z,19.25
2017-12-02T01:56:28.946Z,21.15
2017-12-02T01:58:55.277Z,19.10
2017-12-02T02:01:22.274Z,15.38
2017-12-02T02:03:49.867Z,20.48
2017-12-02T02:06:17.086Z,19.60
2017-12-02T02:08:44.202Z,21.50
2017-12-02T02:11:11.762Z,18.42
2017-12-02T02:13:38.273Z,18.17
2017-12-02T02:16:05.254Z,17.58
2017-12-02T02:18:32.215Z,18.70
2017-12-02T02:20:58.596Z,19.85
2017-12-02T02:23:25.399Z,18.25
2017-12-02T02:25:51.670Z,18.65
2017-12-02T02:28:17.853Z,20.50
2017-12-02T02:30:44.632Z,20.88
2017-12-02T02:33:11.414Z,21.60
2017-12-02T02:35:38.625Z,18.45
2017-12-02T02:38:05.875Z,19.73
2017-12-02T02:40:32.641Z,18.90
2017-12-02T02:43:00.132Z,20.30
2017-12-02T02:45:27.611Z,18.95
2017-12-02T02:47:54.587Z,20.70
2017-12-02T02:50:21.332Z,22.45
2017-12-02T02:52:47.564Z,20.35
2017-12-02T02:55:14.567Z,22.40
2017-12-02T02:57:41.582Z,20.25
2017-12-02T03:00:08.526Z,19.70
2017-12-02T03:02:35.478Z,21.40
2017-12-02T03:05:01.773Z,18.40
2017-12-02T03:07:28.207Z,17.83
2017-12-02T03:09:54.958Z,18.30
2017-12-02T03:12:21.931Z,16.30
2017-12-02T03:14:48.286Z,16.20
2017-12-02T03:17:14.792Z,21.30
2017-12-02T03:19:41.865Z,23.15
2017-12-02T03:22:08.491Z,15.23
2017-12-02T03:24:35.722Z,16.60
2017-12-02T03:27:03.120Z,13.13
2017-12-02T03:29:30.676Z,16.75
2017-12-02T03:31:57.891Z,15.68
2017-12-02T03:34:24.115Z,19.27
2017-12-02T03:36:51.026Z,19.12
2017-12-02T03:39:17.604Z,14.55
2017-12-02T03:41:45.235Z,17.90
2017-12-02T03:44:12.265Z,16.02
2017-12-02T03:46:38.667Z,22.48
2017-12-02T03:49:05.836Z,17.40
2017-12-02T03:51:32.099Z,22.02
2017-12-02T03:54:00.127Z,17.42
2017-12-02T03:56:27.236Z,14.85
2017-12-02T03:58:54.293Z,17.02
2017-12-02T04:01:21.484Z,14.80
2017-12-02T04:03:47.772Z,15.63
2017-12-02T04:06:14.443Z,19.12
2017-12-02T04:08:42.520Z,21.05
2017-12-02T04:11:10.050Z,20.45
2017-12-02T04:13:37.135Z,18.55
2017-12-02T04:16:03.629Z,21.98
2017-12-02T04:18:31.119Z,21.55
2017-12-02T04:20:58.504Z,20.92
2017-12-02T04:23:25.557Z,15.95
2017-12-02T04:25:52.887Z,17.00
2017-12-02T04:28:20.162Z,15.60
2017-12-02T04:30:48.474Z,22.42
2017-12-02T04:33:15.025Z,20.15
2017-12-02T04:35:42.732Z,22.15
2017-12-02T04:38:09.922Z,24.58
2017-12-02T04:40:37.516Z,17.67
2017-12-02T04:43:03.802Z,15.18
2017-12-02T04:45:31.099Z,21.23
2017-12-02T04:47:57.401Z,19.05
2017-12-02T04:50:23.661Z,21.33
2017-12-02T04:52:50.003Z,23.33
2017-12-02T04:55:17.616Z,19.80
2017-12-02T04:57:43.998Z,21.73
2017-12-02T05:00:10.964Z,24.45
2017-12-02T05:02:37.501Z,21.58
2017-12-02T05:05:04.839Z,27.35
2017-12-02T05:07:32.400Z,22.80
2017-12-02T05:09:59.646Z,23.08
2017-12-02T05:12:27.334Z,21.20
2017-12-02T05:14:53.593Z,21.27
2017-12-02T05:17:20.039Z,21.85
2017-12-02T05:19:46.321Z,19.42
2017-12-02T05:22:13.005Z,21.08
2017-12-02T05:24:40.470Z,24.42
2017-12-02T05:27:08.562Z,21.80
2017-12-02T05:29:36.130Z,20.67
2017-12-02T05:32:03.147Z,23.20
2017-12-02T05:34:30.410Z,23.42
2017-12-02T05:36:57.676Z,19.85
2017-12-02T05:39:25.244Z,23.80
2017-12-02T05:41:52.369Z,23.27
2017-12-02T05:44:19.379Z,24.70
2017-12-02T05:46:45.676Z,25.08
2017-12-02T05:49:12.406Z,21.42
2017-12-02T05:51:39.566Z,20.70
2017-12-02T05:54:06.517Z,16.42
2017-12-02T05:56:33.625Z,19.10
2017-12-02T05:59:00.141Z,19.45
2017-12-02T06:01:27.020Z,18.30
2017-12-02T06:03:54.453Z,17.33
2017-12-02T06:06:22.008Z,21.92
2017-12-02T06:08:48.655Z,16.62
2017-12-02T06:11:16.305Z,15.65
2017-12-02T06:13:42.586Z,20.98
2017-12-02T06:16:09.798Z,17.70
2017-12-02T06:18:36.876Z,19.65
2017-12-02T06:21:03.967Z,19.40
2017-12-02T06:23:30.920Z,20.92
2017-12-02T06:25:57.215Z,16.55
2017-12-02T06:28:23.551Z,18.37
2017-12-02T06:30:50.322Z,15.50
2017-12-02T06:33:16.579Z,17.85
2017-12-02T06:35:43.783Z,23.27
2017-12-02T06:38:10.910Z,16.65
2017-12-02T06:40:37.313Z,18.35
2017-12-02T06:43:04.383Z,22.10
2017-12-02T06:45:31.152Z,26.10
2017-12-02T06:47:58.764Z,22.52
2017-12-02T06:50:26.781Z,18.75
2017-12-02T06:52:53.483Z,22.67
2017-12-02T06:55:21.026Z,22.73
2017-12-02T06:57:48.444Z,20.50
2017-12-02T07:00:14.747Z,22.73
2017-12-02T07:02:41.359Z,22.85
2017-12-02T07:05:08.355Z,23.75
2017-12-02T07:07:35.050Z,22.80
2017-12-02T07:10:01.318Z,22.95
2017-12-02T07:12:27.792Z,22.15
2017-12-02T07:14:54.758Z,24.27
2017-12-02T07:17:21.143Z,22.13
2017-12-02T07:19:47.534Z,20.58
2017-12-02T07:22:14.022Z,19.87
2017-12-02T07:24:42.542Z,27.70
2017-12-02T07:27:09.292Z,24.70
2017-12-02T07:29:35.741Z,22.33
2017-12-02T07:32:02.047Z,21.17
2017-12-02T07:34:28.324Z,20.55
2017-12-02T07:36:55.675Z,24.90
2017-12-02T07:39:22.999Z,22.08
2017-12-02T07:41:54.260Z,22.92
2017-12-02T07:44:21.081Z,22.55
2017-12-02T07:49:20.827Z,21.02
2017-12-02T07:51:47.121Z,19.75
2017-12-02T07:54:13.494Z,25.27
2017-12-02T07:56:40.962Z,25.90
2017-12-02T07:59:08.194Z,23.48
2017-12-02T08:01:34.433Z,27.52
2017-12-02T08:04:00.841Z,27.50
2017-12-02T08:06:27.497Z,21.87
2017-12-02T08:08:53.784Z,23.30
2017-12-02T08:11:20.014Z,24.58
2017-12-02T08:13:46.382Z,20.90
2017-12-02T08:16:12.611Z,23.10
2017-12-02T08:18:38.926Z,22.58
2017-12-02T08:21:05.172Z,24.50
2017-12-02T08:23:31.508Z,21.45
2017-12-02T08:25:57.797Z,19.48
2017-12-02T08:28:24.066Z,22.92
2017-12-02T08:30:50.453Z,23.35
2017-12-02T08:33:17.022Z,20.90
2017-12-02T08:35:43.454Z,21.87
2017-12-02T08:38:09.746Z,21.90
2017-12-02T08:40:36.006Z,21.00
2017-12-02T08:43:02.492Z,25.50
2017-12-02T08:45:29.555Z,19.55
2017-12-02T08:47:56.562Z,24.37
2017-12-02T08:50:23.996Z,20.40
2017-12-02T08:52:51.305Z,20.35
2017-12-02T08:55:19.410Z,20.23
2017-12-02T08:57:45.770Z,25.45
2017-12-02T09:00:12.177Z,20.67
2017-12-02T09:02:38.940Z,22.58
2017-12-02T09:05:05.225Z,19.58
2017-12-02T09:07:32.316Z,26.12
2017-12-02T09:09:59.705Z,22.62
2017-12-02T09:12:26.841Z,23.38
2017-12-02T09:14:53.135Z,21.02
2017-12-02T09:17:19.408Z,23.55
2017-12-02T09:19:46.541Z,23.08
2017-12-02T09:22:13.275Z,20.95
2017-12-02T09:24:40.539Z,22.17
2017-12-02T09:27:06.825Z,19.50
2017-12-02T09:29:33.518Z,20.62
2017-12-02T09:32:00.749Z,19.87
2017-12-02T09:34:27.164Z,22.15
2017-12-02T09:36:54.064Z,20.00
2017-12-02T09:39:20.980Z,20.12
2017-12-02T09:41:49.391Z,23.48
2017-12-02T09:44:17.053Z,22.95
2017-12-02T09:46:43.373Z,24.40
2017-12-02T09:54:21.011Z,22.42
2017-12-02T09:56:47.834Z,24.80
2017-12-02T09:59:14.514Z,23.95
2017-12-02T10:01:41.643Z,24.12
2017-12-02T10:04:08.186Z,22.60
2017-12-02T10:06:35.245Z,22.50
2017-12-02T10:11:33.513Z,21.08
2017-12-02T10:14:00.036Z,28.02
2017-12-02T10:16:26.450Z,26.98
2017-12-02T10:18:53.774Z,25.40
2017-12-02T10:21:21.007Z,24.48
2017-12-02T10:23:48.641Z,25.52
2017-12-02T10:26:15.563Z,24.23
2017-12-02T10:28:43.047Z,25.08
2017-12-02T10:31:09.490Z,24.75
2017-12-02T10:33:36.178Z,22.55
2017-12-02T10:36:03.721Z,24.95
2017-12-02T10:38:30.786Z,24.95
2017-12-02T10:40:57.022Z,20.83
2017-12-02T10:43:24.016Z,23.92
2017-12-02T10:45:50.384Z,25.65
2017-12-02T10:48:17.186Z,23.38
2017-12-02T10:50:44.907Z,22.52
2017-12-02T10:53:11.889Z,21.00
2017-12-02T10:55:38.742Z,24.67
2017-12-02T10:58:06.316Z,24.33
2017-12-02T11:00:33.396Z,24.95
2017-12-02T11:03:00.413Z,26.50
2017-12-02T11:05:26.723Z,23.87
2017-12-02T11:07:53.019Z,24.23
2017-12-02T11:10:19.251Z,23.27
2017-12-02T11:12:45.678Z,22.48
2017-12-02T11:15:11.953Z,23.62
2017-12-02T11:17:38.815Z,20.20
2017-12-02T11:20:20.071Z,21.27
2017-12-02T11:22:46.381Z,22.20
2017-12-02T11:25:12.613Z,21.48
2017-12-02T11:27:40.085Z,22.73
2017-12-02T11:30:06.366Z,21.85
2017-12-02T11:32:33.343Z,23.02
2017-12-02T11:35:00.009Z,22.55
2017-12-02T11:37:27.018Z,22.02
2017-12-02T11:39:53.869Z,22.10
2017-12-02T11:42:20.337Z,22.15
2017-12-02T11:44:48.054Z,20.67
2017-12-02T11:47:14.899Z,21.45
2017-12-02T11:49:41.662Z,23.45
2017-12-02T11:52:08.152Z,21.27
2017-12-02T11:54:35.642Z,21.12
2017-12-02T11:57:02.744Z,23.20
2017-12-02T11:59:29.699Z,18.83
2017-12-02T12:01:57.148Z,22.15
2017-12-02T12:04:24.119Z,19.48
2017-12-02T12:06:50.418Z,20.15
2017-12-02T12:09:16.929Z,23.98
2017-12-02T12:11:44.563Z,22.55
2017-12-02T12:14:10.800Z,21.67
2017-12-02T12:16:37.088Z,21.10
2017-12-02T12:19:04.103Z,21.20
2017-12-02T12:21:30.376Z,20.80
2017-12-02T12:23:56.890Z,23.05
2017-12-02T12:26:24.604Z,23.65
2017-12-02T12:28:51.647Z,21.70
2017-12-02T12:31:18.572Z,22.98
2017-12-02T12:33:45.299Z,21.95
2017-12-02T12:36:13.155Z,22.98
2017-12-02T12:38:40.149Z,23.08
2017-12-02T12:41:07.088Z,23.45
2017-12-02T12:43:33.612Z,22.25
2017-12-02T12:46:00.141Z,23.73
2017-12-02T12:48:26.382Z,23.73
2017-12-02T12:50:52.858Z,21.90
2017-12-02T12:53:20.117Z,22.25
2017-12-02T12:55:47.270Z,22.42
2017-12-02T12:58:14.253Z,23.23
2017-12-02T13:00:40.844Z,22.75
2017-12-02T13:03:08.123Z,22.83
2017-12-02T13:05:34.426Z,22.98
2017-12-02T13:08:01.275Z,21.62
2017-12-02T13:10:28.274Z,21.90
2017-12-02T13:12:54.578Z,20.35
2017-12-02T13:15:21.398Z,19.98
2017-12-02T13:17:48.738Z,21.70
2017-12-02T13:20:15.155Z,22.85
2017-12-02T13:22:41.403Z,22.75
2017-12-02T13:25:09.380Z,22.70
2017-12-02T13:27:36.028Z,19.83
2017-12-02T13:30:03.374Z,23.40
2017-12-02T13:32:29.837Z,22.30
2017-12-02T13:34:56.875Z,22.48
2017-12-02T13:37:23.804Z,22.85
2017-12-02T13:39:50.546Z,20.25
2017-12-02T13:42:16.815Z,21.85
2017-12-02T13:44:43.360Z,20.42
2017-12-02T13:47:10.407Z,22.92
2017-12-02T13:49:36.921Z,20.80
2017-12-02T13:52:04.195Z,24.23
2017-12-02T13:54:30.505Z,22.77
2017-12-02T13:56:57.737Z,24.83
2017-12-02T13:59:24.012Z,23.35
2017-12-02T14:01:50.215Z,21.37
2017-12-02T14:04:16.761Z,18.80
2017-12-02T14:06:43.949Z,20.40
2017-12-02T14:09:11.022Z,20.58
2017-12-02T14:11:37.895Z,20.67
2017-12-02T14:14:04.186Z,22.00
2017-12-02T14:16:30.403Z,21.52
2017-12-02T14:18:57.991Z,20.55
2017-12-02T14:21:24.263Z,23.40
2017-12-02T14:23:50.503Z,21.55
2017-12-02T14:26:17.438Z,22.00
2017-12-02T14:28:43.899Z,21.37
2017-12-02T14:31:10.849Z,22.80
2017-12-02T14:33:38.175Z,23.05
2017-12-02T14:36:05.301Z,20.77
2017-12-02T14:38:31.630Z,21.05
2017-12-02T14:40:58.098Z,18.35
2017-12-02T14:43:25.031Z,20.27
2017-12-02T14:45:51.502Z,22.20
2017-12-02T14:48:18.790Z,21.95
2017-12-02T14:50:46.634Z,20.33
2017-12-02T14:53:14.638Z,20.67
2017-12-02T14:55:41.185Z,19.45
2017-12-02T14:58:08.156Z,23.62
2017-12-02T15:00:35.171Z,28.90
2017-12-02T15:03:01.496Z,22.40
2017-12-02T15:05:27.809Z,22.87
2017-12-02T15:07:54.136Z,20.80
2017-12-02T15:10:21.001Z,22.95
2017-12-02T15:12:47.447Z,22.37
2017-12-02T15:15:14.510Z,23.08
2017-12-02T15:17:41.696Z,20.77
2017-12-02T15:20:07.985Z,21.30
2017-12-02T15:22:35.977Z,22.80
2017-12-02T15:25:02.208Z,23.75
2017-12-02T15:27:29.063Z,17.67
2017-12-02T15:29:55.315Z,21.95
2017-12-02T15:32:21.677Z,22.42
2017-12-02T15:34:48.369Z,22.17
2017-12-02T15:37:15.059Z,23.75
2017-12-02T15:39:42.441Z,20.70
2017-12-02T15:42:09.491Z,23.17
2017-12-02T15:44:36.108Z,24.48
2017-12-02T15:47:03.875Z,19.75
2017-12-02T15:49:30.981Z,21.00
2017-12-02T15:51:58.080Z,21.27
2017-12-02T15:54:25.168Z,24.00
2017-12-02T15:56:52.067Z,25.37
2017-12-02T15:59:19.950Z,21.52
2017-12-02T16:01:47.124Z,25.67
2017-12-02T16:04:13.567Z,22.58
2017-12-02T16:06:40.733Z,24.12
2017-12-02T16:09:07.181Z,20.45
2017-12-02T16:11:33.911Z,24.48
2017-12-02T16:14:00.510Z,23.42
2017-12-02T16:16:27.870Z,24.95
2017-12-02T16:18:54.643Z,23.75
2017-12-02T16:21:20.870Z,23.42
2017-12-02T16:23:47.847Z,22.23
2017-12-02T16:26:14.102Z,22.85
2017-12-02T16:28:40.502Z,23.45
2017-12-02T16:31:08.258Z,22.62
2017-12-02T16:33:35.367Z,21.00
2017-12-02T16:36:02.186Z,20.52
2017-12-02T16:38:29.081Z,23.17
2017-12-02T16:40:56.130Z,20.90
2017-12-02T16:43:23.514Z,23.90
2017-12-02T16:45:51.050Z,19.30
2017-12-02T16:48:18.166Z,22.55
2017-12-02T16:50:45.018Z,22.10
2017-12-02T16:53:13.682Z,20.40
2017-12-02T16:55:40.190Z,20.45
2017-12-02T16:58:06.455Z,23.30
2017-12-02T17:00:33.656Z,19.12
2017-12-02T17:03:00.533Z,24.45
2017-12-02T17:05:27.763Z,21.12
2017-12-02T17:07:54.530Z,25.58
2017-12-02T17:10:20.958Z,21.37
2017-12-02T17:12:48.030Z,20.65
2017-12-02T17:15:15.037Z,19.87
2017-12-02T17:17:42.578Z,22.25
2017-12-02T17:20:08.806Z,18.70
2017-12-02T17:22:35.534Z,22.17
2017-12-02T17:25:02.118Z,23.05
2017-12-02T17:27:29.514Z,21.48
2017-12-02T17:29:56.982Z,24.10
2017-12-02T17:32:24.224Z,21.48
2017-12-02T17:34:52.218Z,20.37
2017-12-02T17:37:18.432Z,21.42
2017-12-02T17:39:44.993Z,18.00
2017-12-02T17:42:11.217Z,22.30
2017-12-02T17:44:37.691Z,21.52
2017-12-02T17:47:04.526Z,19.02
2017-12-02T17:49:30.813Z,23.33
2017-12-02T17:51:57.609Z,23.40
2017-12-02T17:54:23.864Z,23.55
2017-12-02T17:56:50.873Z,22.48
2017-12-02T17:59:17.681Z,23.12
2017-12-02T18:01:44.715Z,23.02
2017-12-02T18:04:10.928Z,23.83
2017-12-02T18:06:38.518Z,22.27
2017-12-02T18:09:05.861Z,22.65
2017-12-02T18:11:32.908Z,24.17
2017-12-02T18:13:59.788Z,24.23
2017-12-02T18:16:25.996Z,23.08
2017-12-02T18:18:53.252Z,22.00
2017-12-02T18:21:19.771Z,23.70
2017-12-02T18:23:47.318Z,24.33
2017-12-02T18:26:13.500Z,23.83
2017-12-02T18:31:13.356Z,21.15
2017-12-02T18:33:40.316Z,23.58
2017-12-02T18:36:06.683Z,22.80
2017-12-02T18:38:33.659Z,23.90
2017-12-02T18:41:00.523Z,21.40
2017-12-02T18:43:27.454Z,22.67
2017-12-02T18:55:39.547Z,21.20
2017-12-02T18:58:05.785Z,21.23
2017-12-02T19:00:32.022Z,20.48
2017-12-02T19:02:58.223Z,21.85
2017-12-02T19:05:25.188Z,22.75
2017-12-02T19:07:52.810Z,20.58
2017-12-02T19:10:19.903Z,20.90
2017-12-02T19:12:46.693Z,18.65
2017-12-02T19:15:14.870Z,21.77
2017-12-02T19:17:41.846Z,20.50
2017-12-02T19:20:08.058Z,22.27
2017-12-02T19:22:34.810Z,22.52
2017-12-02T19:25:02.099Z,19.55
2017-12-02T19:27:28.343Z,21.12
2017-12-02T19:29:54.861Z,21.60
2017-12-02T19:32:22.890Z,20.00
2017-12-02T19:34:49.152Z,24.42
2017-12-02T19:37:16.210Z,24.52
2017-12-02T19:39:43.525Z,29.30
2017-12-02T19:42:09.750Z,25.60
2017-12-02T19:44:36.491Z,28.55
2017-12-02T19:47:03.025Z,25.85
2017-12-02T19:49:30.604Z,27.08
2017-12-02T19:51:59.061Z,39.97
2017-12-02T19:54:25.752Z,29.20
2017-12-02T19:56:53.282Z,26.12
2017-12-02T19:59:20.329Z,14.77
2017-12-02T20:01:46.618Z,14.15
2017-12-02T20:04:14.213Z,12.93
2017-12-02T20:06:41.993Z,13.40
2017-12-02T20:09:09.314Z,13.65
2017-12-02T20:11:35.722Z,14.20
2017-12-02T20:14:02.737Z,15.23
2017-12-02T20:16:28.950Z,11.00
2017-12-02T20:18:55.538Z,13.40
2017-12-02T20:21:22.928Z,10.45
2017-12-02T20:23:50.301Z,10.15
2017-12-02T20:26:17.798Z,9.40
2017-12-02T20:28:44.756Z,8.90
2017-12-02T20:31:11.087Z,8.50
2017-12-02T20:33:37.410Z,9.73
2017-12-02T20:36:04.390Z,9.15
2017-12-02T20:38:30.592Z,7.45
2017-12-02T20:40:56.826Z,7.90
2017-12-02T20:43:23.092Z,8.20
2017-12-02T20:45:49.812Z,9.13
2017-12-02T20:48:16.262Z,9.30
2017-12-02T20:50:44.210Z,7.62
2017-12-02T20:53:10.517Z,8.52
2017-12-02T20:55:37.215Z,7.07
2017-12-02T20:58:03.866Z,5.62
2017-12-02T21:00:31.223Z,7.57
2017-12-02T21:02:58.420Z,7.05
2017-12-02T21:05:24.637Z,8.18
2017-12-02T21:07:57.875Z,7.97
2017-12-02T21:10:24.745Z,7.85
2017-12-02T21:12:52.231Z,7.70
2017-12-02T21:15:18.980Z,7.80
2017-12-02T21:17:46.159Z,8.00
2017-12-02T21:20:13.205Z,7.68
2017-12-02T21:22:41.136Z,7.15
2017-12-02T21:25:08.583Z,6.90
2017-12-02T21:27:35.638Z,7.87
2017-12-02T21:30:01.875Z,7.70
2017-12-02T21:32:28.230Z,7.62
2017-12-02T21:34:54.666Z,8.40
2017-12-02T21:37:21.788Z,9.80
2017-12-02T21:39:49.133Z,10.20
2017-12-02T21:42:16.623Z,8.55
2017-12-02T21:44:44.100Z,8.05
2017-12-02T21:47:11.346Z,9.15
2017-12-02T21:49:38.124Z,7.75
2017-12-02T21:52:04.430Z,9.07
2017-12-02T21:54:31.906Z,8.25
2017-12-02T21:56:59.173Z,9.23
2017-12-02T21:59:32.717Z,8.43
2017-12-02T22:01:59.395Z,8.55
2017-12-02T22:04:26.346Z,7.40
2017-12-02T22:06:53.241Z,8.85
2017-12-02T22:09:19.816Z,8.50
2017-12-02T22:11:47.448Z,9.65
2017-12-02T22:14:15.041Z,8.15
2017-12-02T22:16:42.237Z,8.10
2017-12-02T22:19:09.499Z,7.25
2017-12-02T22:21:37.197Z,7.80
2017-12-02T22:24:05.233Z,8.20
2017-12-02T22:26:31.833Z,8.35
2017-12-02T22:28:58.909Z,7.90
2017-12-02T22:31:26.138Z,6.93
2017-12-02T22:33:53.581Z,6.80
2017-12-02T22:36:20.690Z,7.03
2017-12-02T22:38:48.310Z,6.53
2017-12-02T22:41:15.124Z,5.87
2017-12-02T22:43:44.234Z,7.07
2017-12-02T22:46:10.643Z,6.03
2017-12-02T22:48:38.548Z,6.32
2017-12-02T22:51:05.895Z,5.70
2017-12-02T22:53:33.028Z,6.03
2017-12-02T22:55:59.904Z,5.68
2017-12-02T22:58:26.131Z,6.80
2017-12-02T23:00:52.718Z,7.18
2017-12-02T23:03:20.348Z,7.68
2017-12-02T23:05:47.190Z,7.45
2017-12-02T23:08:14.133Z,6.85
2017-12-02T23:10:41.071Z,7.80
2017-12-02T23:13:08.109Z,7.70
2017-12-02T23:15:34.897Z,9.25
2017-12-02T23:18:02.354Z,8.85
2017-12-02T23:20:29.888Z,8.80
2017-12-02T23:22:56.662Z,7.78
2017-12-02T23:25:23.568Z,8.98
2017-12-02T23:27:50.678Z,9.00
2017-12-02T23:30:17.514Z,7.85
2017-12-02T23:32:44.259Z,8.73
2017-12-02T23:35:11.435Z,8.52
2017-12-02T23:37:37.899Z,8.32
2017-12-02T23:40:05.246Z,7.50
2017-12-02T23:42:32.274Z,8.77
2017-12-02T23:44:58.700Z,8.82
2017-12-02T23:47:25.565Z,7.07
2017-12-02T23:49:52.295Z,8.77
2017-12-02T23:52:19.890Z,9.27
2017-12-02T23:54:46.173Z,8.32
2017-12-02T23:57:12.950Z,10.63
2017-12-02T23:59:40.105Z,9.90
